Grand Princess — ZCBU5 — position and weather

sailwx.info

Track history (hours):
 
Tides and Currents Weather Stations Pressure Air Temp Water Temp Dewpoint Dewpoint Depression Visibility Wind Speed Wind Dir Waves Ship Positions

Grand Princess

Operator: Princess Cruises

Last reported at 2016-May-23 14:00 UTC. Time now 2016-May-24 13:51 UTC.
Position N 48°36' W 128°18'.

Length 289.5 m; beam 36 m; draft 8.5 m.

Type: Ship. MMSI: 310327000.

Wind from 090 at 12 knots

Waves 1.0 meters (3 feet), 3 second period

Barometer 1014.2 mb
Air temperature 12.5 ° C
Visibility: greater than 10.8 NM
Dewpoint 10.7 ° C
Water temperature 13.0 ° C

Date/timePositionNaut miles runAvg speedWind from/ knotsBaromVisibWave heightAir tempDewpointWater temp
2016-May-23 14:00N 48°36' W 128°18'52119.3 090 / 121014.210.8 1.012.510.713.0
2016-May-22 11:00N 40°18' W 124°42'9817.9 140 / 101021.610.8 0.512.011.112.0
2016-May-22 05:29N 38°46' W 123°56'1718.6
2016-May-22 04:33N 38°32' W 123°43'1818.5
2016-May-22 03:33N 38°18' W 123°28'1918.6
2016-May-22 02:33N 38°03' W 123°14'1918.8
2016-May-22 01:33N 37°52' W 122°55'1414.0
2016-May-22 00:33N 37°46' W 122°39'1211.8
2016-May-21 23:33N 37°48' W 122°24'0 0.0
2016-May-21 22:32N 37°48' W 122°24'0 0.0
2016-May-21 21:28N 37°48' W 122°24'0 0.0
2016-May-21 20:31N 37°48' W 122°24'0 0.0
2016-May-21 19:33N 37°48' W 122°24'0 0.0
2016-May-21 18:24N 37°48' W 122°24'0 0.0
2016-May-21 17:33N 37°48' W 122°24'0 0.0
2016-May-21 16:32N 37°48' W 122°24'0 0.0
2016-May-21 15:32N 37°48' W 122°24'0 0.0
2016-May-21 14:31N 37°48' W 122°24'0 0.1
2016-May-21 13:33N 37°48' W 122°24'6 6.4
2016-May-21 12:33N 37°48' W 122°32'1312.7
2016-May-21 11:33N 37°47' W 122°48'1919.4
2016-May-21 10:33N 37°57' W 123°09'1919.4
2016-May-21 09:34N 38°12' W 123°25'2019.5
2016-May-21 08:33N 38°28' W 123°40'1919.3
2016-May-21 07:33N 38°43' W 123°54'2415.6
2016-May-21 06:00N 39°06' W 124°06'14120.1 300 / 141013.510.8 0.512.010.211.0
2016-May-20 23:00N 41°24' W 124°42'23820.3 290 / 141013.510.8 0.514.012.311.0
2016-May-20 11:17N 45°21' W 125°07'1521.0
2016-May-20 10:33N 45°36' W 125°08'2121.0
2016-May-20 09:33N 45°57' W 125°09'2120.7
2016-May-20 08:33N 46°18' W 125°11'2120.7
2016-May-20 07:33N 46°39' W 125°13'2120.8
2016-May-20 06:33N 46°59' W 125°14'6520.5
2016-May-20 03:24N 48°04' W 125°17'1820.7
2016-May-20 02:33N 48°21' W 125°10'1818.1
2016-May-20 01:33N 48°31' W 124°47'2120.9
2016-May-20 00:32N 48°23' W 124°17'2120.4
2016-May-19 23:30N 48°17' W 123°47'1515.5
2016-May-19 22:33N 48°21' W 123°26'5 4.5
2016-May-19 21:33N 48°25' W 123°23'0 0.0
2016-May-19 20:33N 48°25' W 123°23'0 0.0
2016-May-19 19:33N 48°25' W 123°23'0 0.0
2016-May-19 18:32N 48°25' W 123°23'0 0.0
2016-May-19 17:32N 48°25' W 123°23'0 0.0
2016-May-19 16:31N 48°25' W 123°23'0 0.0
2016-May-19 15:31N 48°25' W 123°23'0 0.0
2016-May-19 14:34N 48°25' W 123°23'1 0.6
2016-May-19 13:33N 48°25' W 123°24'8 8.0
2016-May-19 12:33N 48°17' W 123°26'1111.0
2016-May-19 11:33N 48°13' W 123°41'5614.0
2016-May-19 07:33N 48°28' W 125°03'1616.0
2016-May-19 06:33N 48°35' W 125°25'1716.9
2016-May-19 05:33N 48°45' W 125°46'1716.9
2016-May-19 04:33N 48°55' W 126°06'1716.6
2016-May-19 03:33N 49°04' W 126°27'18516.0
2016-May-18 16:00N 51°24' W 129°36'3216.0 260 / 141018.510.8 1.0 9.5 8.611.0
2016-May-18 14:00N 51°54' W 129°54'41711.1 260 / 221018.210.8 1.5 9.0 8.011.0
2016-May-17 00:27N 58°08' W 135°13'1820.5
2016-May-16 23:33N 58°18' W 135°44'1312.6
2016-May-16 22:33N 58°26' W 136°01'1515.5
2016-May-16 21:34N 58°41' W 136°11'8 1.3
2016-May-16 15:33N 58°46' W 136°22'1717.4
2016-May-16 14:33N 58°32' W 136°04'1111.4
2016-May-16 13:33N 58°21' W 135°57'1211.7
2016-May-16 12:33N 58°16' W 135°36'  
2016-May-13 23:24N 52°05' W 132°26'9820.3
2016-May-13 18:33N 50°35' W 131°24'1424.1
2016-May-13 18:00N 50°24' W 131°12'919.3 100 / 131016.010.8 0.5 8.5 7.511.0
2016-May-13 17:33N 50°15' W 131°11'2120.8
2016-May-13 16:33N 49°56' W 130°59'2321.3
2016-May-13 15:29N 49°35' W 130°45'2121.5
2016-May-13 14:32N 49°17' W 130°32'  
Track history (hours):
 
Tides and Currents Weather Stations Pressure Air Temp Water Temp Dewpoint Dewpoint Depression Visibility Wind Speed Wind Dir Waves Ship Positions

Grand Princess

Operator: Princess Cruises

Last reported at 2016-May-23 14:00 UTC. Time now 2016-May-24 13:51 UTC.
Position N 48°36' W 128°18'.

Length 289.5 m; beam 36 m; draft 8.5 m.

Type: Ship. MMSI: 310327000.

Wind from 090 at 12 knots

Waves 1.0 meters (3 feet), 3 second period

Barometer 1014.2 mb
Air temperature 12.5 ° C
Visibility: greater than 10.8 NM
Dewpoint 10.7 ° C
Water temperature 13.0 ° C

Date/timePositionNaut miles runAvg speedWind from/ knotsBaromVisibWave heightAir tempDewpointWater temp
2016-May-23 14:00N 48°36' W 128°18'52119.3 090 / 121014.210.8 1.012.510.713.0
2016-May-22 11:00N 40°18' W 124°42'9817.9 140 / 101021.610.8 0.512.011.112.0
2016-May-22 05:29N 38°46' W 123°56'1718.6
2016-May-22 04:33N 38°32' W 123°43'1818.5
2016-May-22 03:33N 38°18' W 123°28'1918.6
2016-May-22 02:33N 38°03' W 123°14'1918.8
2016-May-22 01:33N 37°52' W 122°55'1414.0
2016-May-22 00:33N 37°46' W 122°39'1211.8
2016-May-21 23:33N 37°48' W 122°24'0 0.0
2016-May-21 22:32N 37°48' W 122°24'0 0.0
2016-May-21 21:28N 37°48' W 122°24'0 0.0
2016-May-21 20:31N 37°48' W 122°24'0 0.0
2016-May-21 19:33N 37°48' W 122°24'0 0.0
2016-May-21 18:24N 37°48' W 122°24'0 0.0
2016-May-21 17:33N 37°48' W 122°24'0 0.0
2016-May-21 16:32N 37°48' W 122°24'0 0.0
2016-May-21 15:32N 37°48' W 122°24'0 0.0
2016-May-21 14:31N 37°48' W 122°24'0 0.1
2016-May-21 13:33N 37°48' W 122°24'6 6.4
2016-May-21 12:33N 37°48' W 122°32'1312.7
2016-May-21 11:33N 37°47' W 122°48'1919.4
2016-May-21 10:33N 37°57' W 123°09'1919.4
2016-May-21 09:34N 38°12' W 123°25'2019.5
2016-May-21 08:33N 38°28' W 123°40'1919.3
2016-May-21 07:33N 38°43' W 123°54'2415.6
2016-May-21 06:00N 39°06' W 124°06'14120.1 300 / 141013.510.8 0.512.010.211.0
2016-May-20 23:00N 41°24' W 124°42'23820.3 290 / 141013.510.8 0.514.012.311.0
2016-May-20 11:17N 45°21' W 125°07'1521.0
2016-May-20 10:33N 45°36' W 125°08'2121.0
2016-May-20 09:33N 45°57' W 125°09'2120.7
2016-May-20 08:33N 46°18' W 125°11'2120.7
2016-May-20 07:33N 46°39' W 125°13'2120.8
2016-May-20 06:33N 46°59' W 125°14'6520.5
2016-May-20 03:24N 48°04' W 125°17'1820.7
2016-May-20 02:33N 48°21' W 125°10'1818.1
2016-May-20 01:33N 48°31' W 124°47'2120.9
2016-May-20 00:32N 48°23' W 124°17'2120.4
2016-May-19 23:30N 48°17' W 123°47'1515.5
2016-May-19 22:33N 48°21' W 123°26'5 4.5
2016-May-19 21:33N 48°25' W 123°23'0 0.0
2016-May-19 20:33N 48°25' W 123°23'0 0.0
2016-May-19 19:33N 48°25' W 123°23'0 0.0
2016-May-19 18:32N 48°25' W 123°23'0 0.0
2016-May-19 17:32N 48°25' W 123°23'0 0.0
2016-May-19 16:31N 48°25' W 123°23'0 0.0
2016-May-19 15:31N 48°25' W 123°23'0 0.0
2016-May-19 14:34N 48°25' W 123°23'1 0.6
2016-May-19 13:33N 48°25' W 123°24'8 8.0
2016-May-19 12:33N 48°17' W 123°26'1111.0
2016-May-19 11:33N 48°13' W 123°41'5614.0
2016-May-19 07:33N 48°28' W 125°03'1616.0
2016-May-19 06:33N 48°35' W 125°25'1716.9
2016-May-19 05:33N 48°45' W 125°46'1716.9
2016-May-19 04:33N 48°55' W 126°06'1716.6
2016-May-19 03:33N 49°04' W 126°27'18516.0
2016-May-18 16:00N 51°24' W 129°36'3216.0 260 / 141018.510.8 1.0 9.5 8.611.0
2016-May-18 14:00N 51°54' W 129°54'41711.1 260 / 221018.210.8 1.5 9.0 8.011.0
2016-May-17 00:27N 58°08' W 135°13'1820.5
2016-May-16 23:33N 58°18' W 135°44'1312.6
2016-May-16 22:33N 58°26' W 136°01'1515.5
2016-May-16 21:34N 58°41' W 136°11'8 1.3
2016-May-16 15:33N 58°46' W 136°22'1717.4
2016-May-16 14:33N 58°32' W 136°04'1111.4
2016-May-16 13:33N 58°21' W 135°57'1211.7
2016-May-16 12:33N 58°16' W 135°36'  
2016-May-13 23:24N 52°05' W 132°26'9820.3
2016-May-13 18:33N 50°35' W 131°24'1424.1
2016-May-13 18:00N 50°24' W 131°12'919.3 100 / 131016.010.8 0.5 8.5 7.511.0
2016-May-13 17:33N 50°15' W 131°11'2120.8
2016-May-13 16:33N 49°56' W 130°59'2321.3
2016-May-13 15:29N 49°35' W 130°45'2121.5
2016-May-13 14:32N 49°17' W 130°32'  

Dump ship's entire track history